Custer, SD

1:23 PM MST on November 24, 2014 (GMT -0700)
RAWS CUSTER SD US | Change Station
CLOSE
Current Station
Personal Weather Station
Location: Custer, SD
Elevation: 5820 ft
Nearby Weather Stations

Elev 5820 ft 43.78 °N, 103.64 °W | Updated 59 minutes ago

Overcast
Overcast
30 °F
Feels Like 22 °F
N
8
Wind Variable Wind from WNW
Gusts 16.0 mph

Today
High -- | Low -- °F
--% Chance of Precip.
Yesterday
High -- | Low -- °F
Precip. -- in
7:00 AM 4:21 PM
Waxing Crescent, 7% visible
Pressure 29.95 in
Visibility 10.0 miles
Clouds Few 2700 ft
Overcast 3500 ft
Windchill 22 °F
Dew Point 17 °F
Humidity 58%
Rainfall 0.00 in
Snow Depth Not available.
UV 1 out of 12
Pollen .10 out of 12
Air Quality Not available.
Flu Activity Not available.
METAR KCUT 241953Z AUTO 34008G17KT 10SM FEW027 OVC035 M01/M08 A2986 RMK AO2 SNB31E40 SLP142 P0000 T10111078

More Conditions Fewer Conditions

Pressure 29.95 in
Visibility 10.0 miles
Clouds Few 2700 ft
Overcast 3500 ft
Windchill 22 °F
Dew Point 17 °F
Humidity 58%
Rainfall 0.00 in
Snow Depth Not available.
UV 1 out of 12
Pollen .10 out of 12
Air Quality Not available.
Flu Activity Not available.
METAR KCUT 241953Z AUTO 34008G17KT 10SM FEW027 OVC035 M01/M08 A2986 RMK AO2 SNB31E40 SLP142 P0000 T10111078

More Conditions Fewer Conditions

10-Day Weather Forecast

Almanac

Astronomy

Nov. 24, 2014 Rise Set
Actual Time
Civil Twilight
Nautical Twilight
Astronomical Twilight
Moon
Length of Visible Light
Length of Day
Tomorrow will be .
, % of the Moon is Illuminated

Today's Extremes

State Highs State Lows

Community

WunderPhotos

Upload Photos

1,773,403 photos uploaded!

WunderBlogs® & News

Nearby

Air Quality

  Air Quality AQ Index Pollutant
Not available.

Snow Depth

Station Depth Elevation

Earthquake Activity

City Distance Mag. Time & Date
Minimum magnitude displayed is 2.5.

Coastal Water Temperatures

Place Temperature

Nearby Weather Stations